sensor_id;sensor_type;location;lat;lon;timestamp;P1;durP1;ratioP1;P2;durP2;ratioP2
2313;SDS011;42279;51.388;7.000;2023-04-03T00:01:07;10.15;;;7.97;;
2313;SDS011;42279;51.388;7.000;2023-04-03T00:03:32;20.87;;;16.27;;
2313;SDS011;42279;51.388;7.000;2023-04-03T00:05:59;9.38;;;8.57;;
2313;SDS011;42279;51.388;7.000;2023-04-03T00:08:26;11.98;;;10.75;;
2313;SDS011;42279;51.388;7.000;2023-04-03T00:10:55;9.82;;;8.88;;
2313;SDS011;42279;51.388;7.000;2023-04-03T00:13:23;10.38;;;9.40;;
2313;SDS011;42279;51.388;7.000;2023-04-03T00:15:52;8.20;;;7.47;;
2313;SDS011;42279;51.388;7.000;2023-04-03T00:18:18;9.57;;;8.70;;
2313;SDS011;42279;51.388;7.000;2023-04-03T00:20:48;13.02;;;9.40;;
2313;SDS011;42279;51.388;7.000;2023-04-03T00:23:17;11.85;;;10.18;;
2313;SDS011;42279;51.388;7.000;2023-04-03T00:25:45;8.75;;;8.05;;
2313;SDS011;42279;51.388;7.000;2023-04-03T00:30:48;8.77;;;8.05;;
2313;SDS011;42279;51.388;7.000;2023-04-03T00:33:15;15.23;;;8.07;;
2313;SDS011;42279;51.388;7.000;2023-04-03T00:35:42;10.52;;;8.52;;
2313;SDS011;42279;51.388;7.000;2023-04-03T00:38:08;8.15;;;7.38;;
2313;SDS011;42279;51.388;7.000;2023-04-03T00:40:38;9.65;;;8.75;;
2313;SDS011;42279;51.388;7.000;2023-04-03T00:43:15;8.50;;;7.32;;
2313;SDS011;42279;51.388;7.000;2023-04-03T00:45:47;9.43;;;7.43;;
2313;SDS011;42279;51.388;7.000;2023-04-03T00:48:22;7.70;;;7.20;;
2313;SDS011;42279;51.388;7.000;2023-04-03T00:50:57;9.55;;;7.40;;
2313;SDS011;42279;51.388;7.000;2023-04-03T00:53:25;8.63;;;7.82;;
2313;SDS011;42279;51.388;7.000;2023-04-03T00:55:57;8.82;;;7.70;;
2313;SDS011;42279;51.388;7.000;2023-04-03T00:58:30;10.23;;;8.27;;
2313;SDS011;42279;51.388;7.000;2023-04-03T01:01:03;7.10;;;6.70;;
2313;SDS011;42279;51.388;7.000;2023-04-03T01:03:33;11.48;;;10.40;;
2313;SDS011;42279;51.388;7.000;2023-04-03T01:05:59;7.93;;;7.32;;
2313;SDS011;42279;51.388;7.000;2023-04-03T01:08:25;11.07;;;7.80;;
2313;SDS011;42279;51.388;7.000;2023-04-03T01:10:51;8.47;;;7.57;;
2313;SDS011;42279;51.388;7.000;2023-04-03T01:13:38;9.37;;;8.57;;
2313;SDS011;42279;51.388;7.000;2023-04-03T01:16:03;8.35;;;7.40;;
2313;SDS011;42279;51.388;7.000;2023-04-03T01:18:34;8.35;;;7.75;;
2313;SDS011;42279;51.388;7.000;2023-04-03T01:23:37;9.55;;;8.60;;
2313;SDS011;42279;51.388;7.000;2023-04-03T01:26:18;8.43;;;7.70;;
2313;SDS011;42279;51.388;7.000;2023-04-03T01:28:43;11.20;;;10.40;;
2313;SDS011;42279;51.388;7.000;2023-04-03T01:33:52;8.85;;;8.27;;
2313;SDS011;42279;51.388;7.000;2023-04-03T01:36:23;8.38;;;6.60;;
2313;SDS011;42279;51.388;7.000;2023-04-03T01:38:51;8.25;;;7.47;;
2313;SDS011;42279;51.388;7.000;2023-04-03T01:41:18;9.00;;;8.30;;
2313;SDS011;42279;51.388;7.000;2023-04-03T01:43:45;10.13;;;9.18;;
2313;SDS011;42279;51.388;7.000;2023-04-03T01:46:12;9.95;;;8.25;;
2313;SDS011;42279;51.388;7.000;2023-04-03T01:48:38;10.37;;;9.67;;
2313;SDS011;42279;51.388;7.000;2023-04-03T01:51:03;8.90;;;8.00;;
2313;SDS011;42279;51.388;7.000;2023-04-03T01:53:29;10.60;;;9.80;;
2313;SDS011;42279;51.388;7.000;2023-04-03T01:55:55;10.80;;;8.77;;
2313;SDS011;42279;51.388;7.000;2023-04-03T01:58:20;11.80;;;8.93;;
2313;SDS011;42279;51.388;7.000;2023-04-03T02:00:46;9.33;;;8.43;;
2313;SDS011;42279;51.388;7.000;2023-04-03T02:03:12;10.17;;;8.73;;
2313;SDS011;42279;51.388;7.000;2023-04-03T02:05:38;8.63;;;7.93;;
2313;SDS011;42279;51.388;7.000;2023-04-03T02:08:04;9.95;;;8.43;;
2313;SDS011;42279;51.388;7.000;2023-04-03T02:10:30;10.32;;;9.32;;
2313;SDS011;42279;51.388;7.000;2023-04-03T02:12:56;9.90;;;9.00;;
2313;SDS011;42279;51.388;7.000;2023-04-03T02:15:22;10.87;;;9.50;;
2313;SDS011;42279;51.388;7.000;2023-04-03T02:17:47;15.40;;;9.67;;
2313;SDS011;42279;51.388;7.000;2023-04-03T02:22:49;8.70;;;7.80;;
2313;SDS011;42279;51.388;7.000;2023-04-03T02:53:46;11.80;;;10.60;;
2313;SDS011;42279;51.388;7.000;2023-04-03T02:56:12;12.90;;;9.50;;
2313;SDS011;42279;51.388;7.000;2023-04-03T02:58:39;14.32;;;10.15;;
2313;SDS011;42279;51.388;7.000;2023-04-03T03:01:05;10.60;;;8.60;;
2313;SDS011;42279;51.388;7.000;2023-04-03T03:03:33;9.83;;;8.97;;
2313;SDS011;42279;51.388;7.000;2023-04-03T03:08:38;13.25;;;11.57;;
2313;SDS011;42279;51.388;7.000;2023-04-03T03:11:04;10.18;;;9.15;;
2313;SDS011;42279;51.388;7.000;2023-04-03T03:13:30;12.43;;;10.67;;
2313;SDS011;42279;51.388;7.000;2023-04-03T03:15:56;9.90;;;8.90;;
2313;SDS011;42279;51.388;7.000;2023-04-03T03:18:22;11.70;;;10.60;;
2313;SDS011;42279;51.388;7.000;2023-04-03T03:20:55;9.90;;;9.00;;
2313;SDS011;42279;51.388;7.000;2023-04-03T03:23:22;11.93;;;10.85;;
2313;SDS011;42279;51.388;7.000;2023-04-03T03:25:48;12.52;;;8.65;;
2313;SDS011;42279;51.388;7.000;2023-04-03T03:28:14;14.80;;;10.30;;
2313;SDS011;42279;51.388;7.000;2023-04-03T03:30:39;9.77;;;8.77;;
2313;SDS011;42279;51.388;7.000;2023-04-03T03:33:05;12.80;;;11.50;;
2313;SDS011;42279;51.388;7.000;2023-04-03T03:35:31;15.50;;;13.90;;
2313;SDS011;42279;51.388;7.000;2023-04-03T03:37:56;13.30;;;12.00;;
2313;SDS011;42279;51.388;7.000;2023-04-03T03:40:22;10.53;;;9.47;;
2313;SDS011;42279;51.388;7.000;2023-04-03T03:42:51;10.90;;;9.80;;
2313;SDS011;42279;51.388;7.000;2023-04-03T03:45:19;12.50;;;9.70;;
2313;SDS011;42279;51.388;7.000;2023-04-03T03:50:33;8.90;;;8.00;;
2313;SDS011;42279;51.388;7.000;2023-04-03T03:52:59;14.60;;;9.95;;
2313;SDS011;42279;51.388;7.000;2023-04-03T03:58:01;8.95;;;8.15;;
2313;SDS011;42279;51.388;7.000;2023-04-03T04:02:59;9.45;;;8.55;;
2313;SDS011;42279;51.388;7.000;2023-04-03T04:05:25;8.60;;;7.78;;
2313;SDS011;42279;51.388;7.000;2023-04-03T04:07:51;8.97;;;7.87;;
2313;SDS011;42279;51.388;7.000;2023-04-03T04:10:17;6.93;;;6.53;;
2313;SDS011;42279;51.388;7.000;2023-04-03T04:12:42;8.33;;;7.43;;
2313;SDS011;42279;51.388;7.000;2023-04-03T04:15:08;7.03;;;6.50;;
2313;SDS011;42279;51.388;7.000;2023-04-03T04:17:38;8.32;;;7.47;;
2313;SDS011;42279;51.388;7.000;2023-04-03T04:20:04;9.25;;;8.32;;
2313;SDS011;42279;51.388;7.000;2023-04-03T04:22:30;7.43;;;6.77;;
2313;SDS011;42279;51.388;7.000;2023-04-03T04:24:55;8.30;;;7.80;;
2313;SDS011;42279;51.388;7.000;2023-04-03T04:27:21;6.70;;;6.27;;
2313;SDS011;42279;51.388;7.000;2023-04-03T04:29:47;36.73;;;19.47;;
2313;SDS011;42279;51.388;7.000;2023-04-03T04:32:15;6.75;;;6.25;;
2313;SDS011;42279;51.388;7.000;2023-04-03T04:34:41;6.57;;;6.07;;
2313;SDS011;42279;51.388;7.000;2023-04-03T04:37:07;7.47;;;5.47;;
2313;SDS011;42279;51.388;7.000;2023-04-03T04:39:33;6.03;;;5.53;;
2313;SDS011;42279;51.388;7.000;2023-04-03T04:41:59;5.97;;;5.47;;
2313;SDS011;42279;51.388;7.000;2023-04-03T04:44:25;4.87;;;4.57;;
2313;SDS011;42279;51.388;7.000;2023-04-03T04:46:51;5.85;;;5.32;;
2313;SDS011;42279;51.388;7.000;2023-04-03T04:49:17;8.57;;;5.57;;
2313;SDS011;42279;51.388;7.000;2023-04-03T04:51:43;18.93;;;11.77;;
2313;SDS011;42279;51.388;7.000;2023-04-03T04:54:09;7.00;;;5.43;;
2313;SDS011;42279;51.388;7.000;2023-04-03T04:56:41;5.40;;;4.93;;
2313;SDS011;42279;51.388;7.000;2023-04-03T04:59:07;5.07;;;4.75;;
2313;SDS011;42279;51.388;7.000;2023-04-03T05:01:33;5.80;;;5.43;;
2313;SDS011;42279;51.388;7.000;2023-04-03T05:03:59;5.07;;;4.72;;
2313;SDS011;42279;51.388;7.000;2023-04-03T05:06:24;11.77;;;4.63;;
2313;SDS011;42279;51.388;7.000;2023-04-03T05:08:50;10.50;;;5.50;;
2313;SDS011;42279;51.388;7.000;2023-04-03T05:11:16;4.90;;;4.50;;
2313;SDS011;42279;51.388;7.000;2023-04-03T05:13:41;8.10;;;6.67;;
2313;SDS011;42279;51.388;7.000;2023-04-03T05:16:07;8.07;;;7.00;;
2313;SDS011;42279;51.388;7.000;2023-04-03T05:18:33;6.20;;;5.35;;
2313;SDS011;42279;51.388;7.000;2023-04-03T05:20:58;5.50;;;5.17;;
2313;SDS011;42279;51.388;7.000;2023-04-03T05:23:25;6.03;;;5.40;;
2313;SDS011;42279;51.388;7.000;2023-04-03T05:25:51;6.03;;;5.38;;
2313;SDS011;42279;51.388;7.000;2023-04-03T05:28:17;3.50;;;3.40;;
2313;SDS011;42279;51.388;7.000;2023-04-03T05:30:42;5.77;;;5.27;;
2313;SDS011;42279;51.388;7.000;2023-04-03T05:33:08;4.40;;;4.10;;
2313;SDS011;42279;51.388;7.000;2023-04-03T05:35:35;4.77;;;4.10;;
2313;SDS011;42279;51.388;7.000;2023-04-03T05:38:04;4.15;;;3.85;;
2313;SDS011;42279;51.388;7.000;2023-04-03T05:40:30;4.25;;;4.00;;
2313;SDS011;42279;51.388;7.000;2023-04-03T05:42:56;5.17;;;4.87;;
2313;SDS011;42279;51.388;7.000;2023-04-03T05:45:21;7.60;;;3.90;;
2313;SDS011;42279;51.388;7.000;2023-04-03T05:47:47;5.20;;;4.70;;
2313;SDS011;42279;51.388;7.000;2023-04-03T05:50:13;7.13;;;3.63;;
2313;SDS011;42279;51.388;7.000;2023-04-03T05:52:40;3.60;;;3.40;;
2313;SDS011;42279;51.388;7.000;2023-04-03T05:55:09;3.50;;;3.30;;
2313;SDS011;42279;51.388;7.000;2023-04-03T05:57:35;3.70;;;3.50;;
2313;SDS011;42279;51.388;7.000;2023-04-03T06:00:01;7.53;;;3.63;;
2313;SDS011;42279;51.388;7.000;2023-04-03T06:02:28;3.88;;;3.55;;
2313;SDS011;42279;51.388;7.000;2023-04-03T06:07:29;5.05;;;3.00;;
2313;SDS011;42279;51.388;7.000;2023-04-03T06:09:56;3.20;;;3.08;;
2313;SDS011;42279;51.388;7.000;2023-04-03T06:12:22;4.80;;;3.20;;
2313;SDS011;42279;51.388;7.000;2023-04-03T06:14:51;3.40;;;2.70;;
2313;SDS011;42279;51.388;7.000;2023-04-03T06:17:17;3.47;;;3.27;;
2313;SDS011;42279;51.388;7.000;2023-04-03T06:19:43;7.83;;;4.77;;
2313;SDS011;42279;51.388;7.000;2023-04-03T06:22:10;4.87;;;4.67;;
2313;SDS011;42279;51.388;7.000;2023-04-03T06:24:37;4.13;;;3.57;;
2313;SDS011;42279;51.388;7.000;2023-04-03T06:27:04;2.10;;;2.10;;
2313;SDS011;42279;51.388;7.000;2023-04-03T06:29:30;10.80;;;6.13;;
2313;SDS011;42279;51.388;7.000;2023-04-03T06:31:56;3.03;;;3.00;;
2313;SDS011;42279;51.388;7.000;2023-04-03T06:34:22;12.83;;;6.90;;
2313;SDS011;42279;51.388;7.000;2023-04-03T06:36:49;2.90;;;2.80;;
2313;SDS011;42279;51.388;7.000;2023-04-03T06:39:16;3.30;;;3.13;;
2313;SDS011;42279;51.388;7.000;2023-04-03T06:41:46;8.23;;;3.87;;
2313;SDS011;42279;51.388;7.000;2023-04-03T06:44:11;2.60;;;2.60;;
2313;SDS011;42279;51.388;7.000;2023-04-03T06:46:40;3.83;;;3.30;;
2313;SDS011;42279;51.388;7.000;2023-04-03T06:49:06;2.93;;;2.83;;
2313;SDS011;42279;51.388;7.000;2023-04-03T06:51:32;2.90;;;2.47;;
2313;SDS011;42279;51.388;7.000;2023-04-03T06:53:59;4.00;;;2.83;;
2313;SDS011;42279;51.388;7.000;2023-04-03T06:56:25;5.37;;;3.07;;
2313;SDS011;42279;51.388;7.000;2023-04-03T06:58:52;2.87;;;2.67;;
2313;SDS011;42279;51.388;7.000;2023-04-03T07:01:23;4.10;;;2.57;;
2313;SDS011;42279;51.388;7.000;2023-04-03T07:03:53;3.07;;;2.33;;
2313;SDS011;42279;51.388;7.000;2023-04-03T07:06:19;3.00;;;2.80;;
2313;SDS011;42279;51.388;7.000;2023-04-03T07:08:45;2.87;;;2.57;;
2313;SDS011;42279;51.388;7.000;2023-04-03T07:11:13;3.40;;;2.90;;
2313;SDS011;42279;51.388;7.000;2023-04-03T07:13:39;3.17;;;3.00;;
2313;SDS011;42279;51.388;7.000;2023-04-03T07:16:05;3.40;;;3.23;;
2313;SDS011;42279;51.388;7.000;2023-04-03T07:18:32;4.67;;;3.93;;
2313;SDS011;42279;51.388;7.000;2023-04-03T07:20:58;2.50;;;2.40;;
2313;SDS011;42279;51.388;7.000;2023-04-03T07:23:25;8.93;;;7.03;;
2313;SDS011;42279;51.388;7.000;2023-04-03T07:25:51;3.17;;;2.47;;
2313;SDS011;42279;51.388;7.000;2023-04-03T07:28:18;3.97;;;3.43;;
2313;SDS011;42279;51.388;7.000;2023-04-03T07:30:46;5.40;;;4.53;;
2313;SDS011;42279;51.388;7.000;2023-04-03T07:33:13;3.23;;;3.13;;
2313;SDS011;42279;51.388;7.000;2023-04-03T07:35:39;3.20;;;3.00;;
2313;SDS011;42279;51.388;7.000;2023-04-03T07:38:09;3.00;;;2.80;;
2313;SDS011;42279;51.388;7.000;2023-04-03T07:40:36;3.50;;;2.73;;
2313;SDS011;42279;51.388;7.000;2023-04-03T07:43:02;4.10;;;3.10;;
2313;SDS011;42279;51.388;7.000;2023-04-03T07:45:29;4.13;;;2.80;;
2313;SDS011;42279;51.388;7.000;2023-04-03T07:47:55;3.83;;;3.60;;
2313;SDS011;42279;51.388;7.000;2023-04-03T07:50:21;6.67;;;4.50;;
2313;SDS011;42279;51.388;7.000;2023-04-03T07:52:47;9.50;;;5.30;;
2313;SDS011;42279;51.388;7.000;2023-04-03T07:55:15;4.40;;;4.10;;
2313;SDS011;42279;51.388;7.000;2023-04-03T07:57:41;3.90;;;2.70;;
2313;SDS011;42279;51.388;7.000;2023-04-03T08:00:08;3.90;;;3.60;;
2313;SDS011;42279;51.388;7.000;2023-04-03T08:02:35;3.60;;;3.30;;
2313;SDS011;42279;51.388;7.000;2023-04-03T08:05:08;3.43;;;3.20;;
2313;SDS011;42279;51.388;7.000;2023-04-03T08:07:34;2.80;;;2.60;;
2313;SDS011;42279;51.388;7.000;2023-04-03T08:10:02;2.50;;;2.40;;
2313;SDS011;42279;51.388;7.000;2023-04-03T08:12:28;3.17;;;2.97;;
2313;SDS011;42279;51.388;7.000;2023-04-03T08:14:54;2.40;;;2.30;;
2313;SDS011;42279;51.388;7.000;2023-04-03T08:17:27;3.50;;;2.70;;
2313;SDS011;42279;51.388;7.000;2023-04-03T08:19:53;3.03;;;2.77;;
2313;SDS011;42279;51.388;7.000;2023-04-03T08:22:19;2.43;;;2.23;;
2313;SDS011;42279;51.388;7.000;2023-04-03T08:24:45;2.70;;;2.60;;
2313;SDS011;42279;51.388;7.000;2023-04-03T08:27:12;3.00;;;2.27;;
2313;SDS011;42279;51.388;7.000;2023-04-03T08:29:38;2.03;;;1.93;;
2313;SDS011;42279;51.388;7.000;2023-04-03T08:32:05;3.57;;;1.53;;
2313;SDS011;42279;51.388;7.000;2023-04-03T08:34:31;4.37;;;1.87;;
2313;SDS011;42279;51.388;7.000;2023-04-03T08:37:01;1.90;;;1.90;;
2313;SDS011;42279;51.388;7.000;2023-04-03T08:39:27;2.47;;;2.27;;
2313;SDS011;42279;51.388;7.000;2023-04-03T08:41:55;4.53;;;4.23;;
2313;SDS011;42279;51.388;7.000;2023-04-03T08:49:22;2.17;;;2.00;;
2313;SDS011;42279;51.388;7.000;2023-04-03T08:51:51;4.97;;;4.67;;
2313;SDS011;42279;51.388;7.000;2023-04-03T08:54:30;1.90;;;1.80;;
2313;SDS011;42279;51.388;7.000;2023-04-03T08:56:58;3.70;;;3.60;;
2313;SDS011;42279;51.388;7.000;2023-04-03T08:59:28;2.23;;;2.13;;
2313;SDS011;42279;51.388;7.000;2023-04-03T09:01:55;3.43;;;3.33;;
2313;SDS011;42279;51.388;7.000;2023-04-03T09:04:22;5.57;;;5.10;;
2313;SDS011;42279;51.388;7.000;2023-04-03T09:06:49;2.17;;;1.97;;
2313;SDS011;42279;51.388;7.000;2023-04-03T09:09:31;4.97;;;3.40;;
2313;SDS011;42279;51.388;7.000;2023-04-03T09:17:28;2.23;;;1.80;;
2313;SDS011;42279;51.388;7.000;2023-04-03T09:20:09;2.50;;;2.20;;
2313;SDS011;42279;51.388;7.000;2023-04-03T09:22:41;1.60;;;1.60;;
2313;SDS011;42279;51.388;7.000;2023-04-03T09:25:15;1.87;;;1.77;;
2313;SDS011;42279;51.388;7.000;2023-04-03T09:27:45;1.47;;;1.47;;
2313;SDS011;42279;51.388;7.000;2023-04-03T09:30:14;1.40;;;1.40;;
2313;SDS011;42279;51.388;7.000;2023-04-03T09:32:43;1.77;;;1.67;;
2313;SDS011;42279;51.388;7.000;2023-04-03T09:35:16;1.37;;;1.27;;
2313;SDS011;42279;51.388;7.000;2023-04-03T09:37:44;3.20;;;1.50;;
2313;SDS011;42279;51.388;7.000;2023-04-03T09:42:56;1.60;;;1.43;;
2313;SDS011;42279;51.388;7.000;2023-04-03T09:45:25;9.10;;;2.90;;
2313;SDS011;42279;51.388;7.000;2023-04-03T09:53:32;1.60;;;1.60;;
2313;SDS011;42279;51.388;7.000;2023-04-03T09:58:40;1.67;;;1.57;;
2313;SDS011;42279;51.388;7.000;2023-04-03T10:01:26;1.43;;;1.43;;
2313;SDS011;42279;51.388;7.000;2023-04-03T10:06:41;1.50;;;1.50;;
2313;SDS011;42279;51.388;7.000;2023-04-03T10:09:30;1.37;;;1.37;;
2313;SDS011;42279;51.388;7.000;2023-04-03T10:14:22;1.50;;;1.50;;
2313;SDS011;42279;51.388;7.000;2023-04-03T10:16:53;3.80;;;2.70;;
2313;SDS011;42279;51.388;7.000;2023-04-03T10:30:20;2.60;;;2.50;;
2313;SDS011;42279;51.388;7.000;2023-04-03T10:40:54;1.90;;;1.80;;
2313;SDS011;42279;51.388;7.000;2023-04-03T10:46:15;2.43;;;1.83;;
2313;SDS011;42279;51.388;7.000;2023-04-03T10:54:05;1.73;;;1.63;;
2313;SDS011;42279;51.388;7.000;2023-04-03T10:56:39;2.77;;;2.00;;
2313;SDS011;42279;51.388;7.000;2023-04-03T11:01:42;5.13;;;1.70;;
2313;SDS011;42279;51.388;7.000;2023-04-03T11:04:10;1.53;;;1.43;;
2313;SDS011;42279;51.388;7.000;2023-04-03T11:06:39;1.90;;;1.80;;
2313;SDS011;42279;51.388;7.000;2023-04-03T11:09:18;1.60;;;1.50;;
2313;SDS011;42279;51.388;7.000;2023-04-03T11:15:15;2.13;;;2.03;;
2313;SDS011;42279;51.388;7.000;2023-04-03T11:17:58;1.93;;;1.83;;
2313;SDS011;42279;51.388;7.000;2023-04-03T11:25:38;2.50;;;2.40;;
2313;SDS011;42279;51.388;7.000;2023-04-03T11:28:11;2.73;;;1.53;;
2313;SDS011;42279;51.388;7.000;2023-04-03T11:33:14;1.40;;;1.37;;
2313;SDS011;42279;51.388;7.000;2023-04-03T11:35:51;1.40;;;1.40;;
2313;SDS011;42279;51.388;7.000;2023-04-03T11:38:26;1.77;;;1.70;;
2313;SDS011;42279;51.388;7.000;2023-04-03T11:41:01;1.73;;;1.63;;
2313;SDS011;42279;51.388;7.000;2023-04-03T11:43:28;1.57;;;1.53;;
2313;SDS011;42279;51.388;7.000;2023-04-03T11:46:14;1.97;;;1.97;;
2313;SDS011;42279;51.388;7.000;2023-04-03T11:48:42;1.80;;;1.50;;
2313;SDS011;42279;51.388;7.000;2023-04-03T11:53:43;2.83;;;1.60;;
2313;SDS011;42279;51.388;7.000;2023-04-03T12:04:16;1.50;;;1.40;;
2313;SDS011;42279;51.388;7.000;2023-04-03T12:09:25;1.70;;;1.60;;
2313;SDS011;42279;51.388;7.000;2023-04-03T12:11:52;2.23;;;1.50;;
2313;SDS011;42279;51.388;7.000;2023-04-03T12:14:18;1.60;;;1.60;;
2313;SDS011;42279;51.388;7.000;2023-04-03T12:16:47;2.20;;;2.20;;
2313;SDS011;42279;51.388;7.000;2023-04-03T12:26:48;3.83;;;2.80;;
2313;SDS011;42279;51.388;7.000;2023-04-03T12:34:29;1.70;;;1.60;;
2313;SDS011;42279;51.388;7.000;2023-04-03T12:37:01;1.17;;;1.17;;
2313;SDS011;42279;51.388;7.000;2023-04-03T12:39:51;1.77;;;1.67;;
2313;SDS011;42279;51.388;7.000;2023-04-03T12:42:24;3.70;;;3.40;;
2313;SDS011;42279;51.388;7.000;2023-04-03T12:45:03;3.60;;;1.90;;
2313;SDS011;42279;51.388;7.000;2023-04-03T12:47:35;2.00;;;1.90;;
2313;SDS011;42279;51.388;7.000;2023-04-03T12:55:29;4.17;;;3.27;;
2313;SDS011;42279;51.388;7.000;2023-04-03T12:57:55;1.60;;;1.50;;
2313;SDS011;42279;51.388;7.000;2023-04-03T13:02:58;1.50;;;1.50;;
2313;SDS011;42279;51.388;7.000;2023-04-03T13:05:24;1.90;;;1.47;;
2313;SDS011;42279;51.388;7.000;2023-04-03T13:08:10;1.77;;;1.37;;
2313;SDS011;42279;51.388;7.000;2023-04-03T13:11:02;4.10;;;1.60;;
2313;SDS011;42279;51.388;7.000;2023-04-03T13:13:29;1.07;;;1.07;;
2313;SDS011;42279;51.388;7.000;2023-04-03T13:15:55;1.23;;;1.10;;
2313;SDS011;42279;51.388;7.000;2023-04-03T13:20:57;1.40;;;1.40;;
2313;SDS011;42279;51.388;7.000;2023-04-03T13:23:23;1.03;;;1.03;;
2313;SDS011;42279;51.388;7.000;2023-04-03T13:25:50;2.63;;;2.43;;
2313;SDS011;42279;51.388;7.000;2023-04-03T13:28:20;1.20;;;1.20;;
2313;SDS011;42279;51.388;7.000;2023-04-03T13:31:08;1.17;;;1.10;;
2313;SDS011;42279;51.388;7.000;2023-04-03T13:33:36;3.33;;;2.00;;
2313;SDS011;42279;51.388;7.000;2023-04-03T13:38:30;1.40;;;1.40;;
2313;SDS011;42279;51.388;7.000;2023-04-03T13:40:59;1.43;;;1.33;;
2313;SDS011;42279;51.388;7.000;2023-04-03T13:43:28;1.60;;;1.60;;
2313;SDS011;42279;51.388;7.000;2023-04-03T13:48:41;1.20;;;1.20;;
2313;SDS011;42279;51.388;7.000;2023-04-03T13:56:25;1.30;;;1.20;;
2313;SDS011;42279;51.388;7.000;2023-04-03T13:58:56;1.17;;;1.17;;
2313;SDS011;42279;51.388;7.000;2023-04-03T14:04:27;0.93;;;0.93;;
2313;SDS011;42279;51.388;7.000;2023-04-03T14:06:57;2.60;;;1.80;;
2313;SDS011;42279;51.388;7.000;2023-04-03T14:09:24;1.20;;;1.20;;
2313;SDS011;42279;51.388;7.000;2023-04-03T14:11:53;4.97;;;1.50;;
2313;SDS011;42279;51.388;7.000;2023-04-03T14:14:26;1.70;;;1.70;;
2313;SDS011;42279;51.388;7.000;2023-04-03T14:16:56;4.10;;;2.27;;
2313;SDS011;42279;51.388;7.000;2023-04-03T14:19:29;1.40;;;1.40;;
2313;SDS011;42279;51.388;7.000;2023-04-03T14:21:57;1.40;;;1.40;;
2313;SDS011;42279;51.388;7.000;2023-04-03T14:24:24;1.33;;;1.23;;
2313;SDS011;42279;51.388;7.000;2023-04-03T14:26:50;2.10;;;1.30;;
2313;SDS011;42279;51.388;7.000;2023-04-03T14:29:18;2.10;;;2.07;;
2313;SDS011;42279;51.388;7.000;2023-04-03T14:31:45;2.27;;;2.07;;
2313;SDS011;42279;51.388;7.000;2023-04-03T14:34:13;1.67;;;1.67;;
2313;SDS011;42279;51.388;7.000;2023-04-03T14:36:40;2.33;;;1.60;;
2313;SDS011;42279;51.388;7.000;2023-04-03T14:39:08;1.27;;;1.27;;
2313;SDS011;42279;51.388;7.000;2023-04-03T14:41:40;1.30;;;1.20;;
2313;SDS011;42279;51.388;7.000;2023-04-03T14:44:07;3.13;;;1.50;;
2313;SDS011;42279;51.388;7.000;2023-04-03T14:46:34;1.17;;;1.17;;
2313;SDS011;42279;51.388;7.000;2023-04-03T14:49:01;5.30;;;1.33;;
2313;SDS011;42279;51.388;7.000;2023-04-03T14:51:32;2.53;;;1.60;;
2313;SDS011;42279;51.388;7.000;2023-04-03T14:53:58;2.13;;;1.80;;
2313;SDS011;42279;51.388;7.000;2023-04-03T14:56:27;2.13;;;1.80;;
2313;SDS011;42279;51.388;7.000;2023-04-03T14:58:55;1.83;;;1.43;;
2313;SDS011;42279;51.388;7.000;2023-04-03T15:01:22;4.40;;;1.20;;
2313;SDS011;42279;51.388;7.000;2023-04-03T15:03:48;3.33;;;1.23;;
2313;SDS011;42279;51.388;7.000;2023-04-03T15:06:15;1.77;;;1.77;;
2313;SDS011;42279;51.388;7.000;2023-04-03T15:08:42;1.73;;;1.63;;
2313;SDS011;42279;51.388;7.000;2023-04-03T15:11:09;2.30;;;2.20;;
2313;SDS011;42279;51.388;7.000;2023-04-03T15:13:36;1.90;;;1.80;;
2313;SDS011;42279;51.388;7.000;2023-04-03T15:16:02;1.90;;;1.80;;
2313;SDS011;42279;51.388;7.000;2023-04-03T15:18:29;1.10;;;1.10;;
2313;SDS011;42279;51.388;7.000;2023-04-03T15:20:56;2.17;;;1.60;;
2313;SDS011;42279;51.388;7.000;2023-04-03T15:23:23;1.83;;;1.83;;
2313;SDS011;42279;51.388;7.000;2023-04-03T15:25:51;2.20;;;2.10;;
2313;SDS011;42279;51.388;7.000;2023-04-03T15:28:27;1.20;;;1.20;;
2313;SDS011;42279;51.388;7.000;2023-04-03T15:30:54;1.33;;;1.30;;
2313;SDS011;42279;51.388;7.000;2023-04-03T15:33:21;1.30;;;1.30;;
2313;SDS011;42279;51.388;7.000;2023-04-03T15:35:47;4.93;;;1.90;;
2313;SDS011;42279;51.388;7.000;2023-04-03T15:38:14;1.60;;;1.60;;
2313;SDS011;42279;51.388;7.000;2023-04-03T15:40:40;2.63;;;1.30;;
2313;SDS011;42279;51.388;7.000;2023-04-03T15:43:07;2.20;;;2.00;;
2313;SDS011;42279;51.388;7.000;2023-04-03T15:48:03;1.80;;;1.70;;
2313;SDS011;42279;51.388;7.000;2023-04-03T15:50:30;1.13;;;1.13;;
2313;SDS011;42279;51.388;7.000;2023-04-03T15:52:58;1.67;;;1.57;;
2313;SDS011;42279;51.388;7.000;2023-04-03T15:55:27;1.33;;;1.33;;
2313;SDS011;42279;51.388;7.000;2023-04-03T15:57:57;1.07;;;1.07;;
2313;SDS011;42279;51.388;7.000;2023-04-03T16:00:23;1.50;;;1.40;;
2313;SDS011;42279;51.388;7.000;2023-04-03T16:11:58;4.33;;;4.03;;
2313;SDS011;42279;51.388;7.000;2023-04-03T16:17:36;1.63;;;1.50;;
2313;SDS011;42279;51.388;7.000;2023-04-03T16:20:11;1.90;;;1.80;;
2313;SDS011;42279;51.388;7.000;2023-04-03T16:22:50;3.47;;;1.97;;
2313;SDS011;42279;51.388;7.000;2023-04-03T16:25:18;2.37;;;1.63;;
2313;SDS011;42279;51.388;7.000;2023-04-03T16:27:53;1.70;;;1.70;;
2313;SDS011;42279;51.388;7.000;2023-04-03T16:30:25;4.10;;;1.87;;
2313;SDS011;42279;51.388;7.000;2023-04-03T16:32:51;1.30;;;1.30;;
2313;SDS011;42279;51.388;7.000;2023-04-03T16:35:18;1.57;;;1.50;;
2313;SDS011;42279;51.388;7.000;2023-04-03T16:37:44;1.87;;;1.77;;
2313;SDS011;42279;51.388;7.000;2023-04-03T16:40:10;1.83;;;1.83;;
2313;SDS011;42279;51.388;7.000;2023-04-03T16:42:37;1.30;;;1.30;;
2313;SDS011;42279;51.388;7.000;2023-04-03T16:45:04;5.30;;;1.87;;
2313;SDS011;42279;51.388;7.000;2023-04-03T16:47:30;2.17;;;1.80;;
2313;SDS011;42279;51.388;7.000;2023-04-03T16:49:57;1.53;;;1.53;;
2313;SDS011;42279;51.388;7.000;2023-04-03T16:52:23;2.00;;;2.00;;
2313;SDS011;42279;51.388;7.000;2023-04-03T16:54:49;1.70;;;1.70;;
2313;SDS011;42279;51.388;7.000;2023-04-03T16:57:20;2.23;;;1.77;;
2313;SDS011;42279;51.388;7.000;2023-04-03T16:59:49;1.50;;;1.50;;
2313;SDS011;42279;51.388;7.000;2023-04-03T17:02:15;1.87;;;1.77;;
2313;SDS011;42279;51.388;7.000;2023-04-03T17:04:41;2.93;;;2.30;;
2313;SDS011;42279;51.388;7.000;2023-04-03T17:07:07;2.10;;;1.33;;
2313;SDS011;42279;51.388;7.000;2023-04-03T17:09:33;1.50;;;1.50;;
2313;SDS011;42279;51.388;7.000;2023-04-03T17:11:59;3.63;;;2.73;;
2313;SDS011;42279;51.388;7.000;2023-04-03T17:14:26;2.23;;;1.47;;
2313;SDS011;42279;51.388;7.000;2023-04-03T17:19:28;1.17;;;1.07;;
2313;SDS011;42279;51.388;7.000;2023-04-03T17:21:55;2.83;;;1.90;;
2313;SDS011;42279;51.388;7.000;2023-04-03T17:24:21;4.00;;;1.57;;
2313;SDS011;42279;51.388;7.000;2023-04-03T17:26:47;1.87;;;1.77;;
2313;SDS011;42279;51.388;7.000;2023-04-03T17:29:13;2.60;;;2.40;;
2313;SDS011;42279;51.388;7.000;2023-04-03T17:31:40;14.53;;;8.30;;
2313;SDS011;42279;51.388;7.000;2023-04-03T17:34:06;2.77;;;1.90;;
2313;SDS011;42279;51.388;7.000;2023-04-03T17:36:35;4.60;;;4.30;;
2313;SDS011;42279;51.388;7.000;2023-04-03T17:39:02;3.57;;;1.63;;
2313;SDS011;42279;51.388;7.000;2023-04-03T17:41:28;3.37;;;2.13;;
2313;SDS011;42279;51.388;7.000;2023-04-03T17:43:54;1.83;;;1.73;;
2313;SDS011;42279;51.388;7.000;2023-04-03T17:46:21;1.87;;;1.63;;
2313;SDS011;42279;51.388;7.000;2023-04-03T17:48:48;1.80;;;1.70;;
2313;SDS011;42279;51.388;7.000;2023-04-03T17:51:15;1.80;;;1.70;;
2313;SDS011;42279;51.388;7.000;2023-04-03T17:53:42;3.00;;;2.37;;
2313;SDS011;42279;51.388;7.000;2023-04-03T17:56:09;1.87;;;1.77;;
2313;SDS011;42279;51.388;7.000;2023-04-03T18:03:42;1.60;;;1.60;;
2313;SDS011;42279;51.388;7.000;2023-04-03T18:06:15;3.87;;;3.57;;
2313;SDS011;42279;51.388;7.000;2023-04-03T18:08:56;1.83;;;1.73;;
2313;SDS011;42279;51.388;7.000;2023-04-03T18:11:26;1.47;;;1.37;;
2313;SDS011;42279;51.388;7.000;2023-04-03T18:13:53;1.97;;;1.87;;
2313;SDS011;42279;51.388;7.000;2023-04-03T18:16:20;1.53;;;1.53;;